WEATHER DATA

TODAY
Time Temp. Dewp. Hum. Wind dir Wind speed Wind gust Bar.
00:04 16.4 10.3 67 19 0.3 1.1 1011.1
00:24 16.4 10.3 67 20 0.3 1.1 1011
00:34 16.4 10.3 67 20 0.3 1.4 1011
00:44 16.3 10.2 67 28 0.3 1.4 1011.1
00:54 16.1 10 67 10 0.8 1.4 1011.2
01:04 15.8 9.7 67 17 0.8 1.4 1011.3
01:14 15.7 9.6 67 15 0.8 1.7 1011.3
01:25 15.4 9.3 67 18 0.8 1.4 1011.4
01:34 15.2 9.3 68 15 0.8 1.4 1011.4
01:44 15 9.1 68 22 0.8 1.4 1011.4
01:54 14.9 9.1 68 21 0.3 1.4 1011.4
02:04 14.7 8.9 68 19 0.8 1.1 1011.4
02:14 14.6 8.8 68 22 0.3 1.1 1011.4
02:24 14.5 8.9 69 16 0.3 1.1 1011.4
02:35 14.4 8.8 69 9 0.3 1.4 1011.5
02:44 14.3 8.7 69 19 0.8 1.4 1011.5
02:54 14.1 8.5 69 18 0.3 1.1 1011.4
03:05 13.9 8.3 69 23 0.8 1.1 1011.4
03:15 13.8 8.2 69 14 0.3 1.4 1011.3
03:24 13.8 8.2 69 19 0.3 1.4 1011.2
03:34 13.7 8.1 69 11 0.8 1.4 1011.2
03:45 13.6 8.2 70 11 0.3 1.1 1011.1
03:54 13.6 8.2 70 6 0.3 1.4 1011
04:04 13.5 8.1 70 0 0.3 1.1 1011
04:15 13.5 8.1 70 8 0.3 1.1 1011
04:25 13.6 8.2 70 352 0.3 1.4 1010.9
04:34 13.6 8.2 70 357 0.3 1.7 1010.9
04:44 13.6 8.2 70 356 0.3 1.4 1010.9
04:55 13.6 8.2 70 0 0.3 1.4 1010.8
05:05 13.6 8.2 70 2 0.3 1.1 1010.8
05:14 13.6 8.2 70 2 0.8 1.7 1010.9
05:25 13.7 8.5 71 8 0.3 1.4 1010.8
05:35 13.7 8.5 71 5 0.3 1.4 1010.9
05:44 13.7 8.5 71 5 0.3 1.4 1010.8
05:55 13.7 8.5 71 11 0.3 1.1 1010.9
06:05 13.8 8.6 71 12 0.3 1.1 1010.9
06:15 14 8.8 71 20 0.3 1.1 1011
06:24 14.3 9.1 71 22 0.3 1.7 1011
06:35 14.5 9.3 71 18 0.3 1.7 1011.1
06:45 14.9 9.7 71 27 0.3 1.1 1011.1
06:54 15.2 10 71 30 0.3 1.4 1011.2
07:05 15.6 10.4 71 45 0.3 1.4 1011.2
07:15 16 10.8 71 23 0.3 1.1 1011.2
07:25 16.5 11.2 71 324 0.3 1.4 1011.1
07:35 17 11.7 71 14 0.3 1.4 1011.1
07:45 17.5 12 70 315 0.3 1.4 1011.1
07:55 18 12.5 70 333 0.3 2.2 1011.2
08:04 18.4 12.8 70 90 0.3 1.1 1011.1
08:15 18.8 13 69 90 0.8 1.4 1011.1
08:25 19.1 13.3 69 112 0.8 1.4 1011.2
08:35 19.5 13.7 69 116 0.8 1.7 1011.2
08:45 19.8 14 69 119 0.8 2.2 1011.1
08:55 19.9 13.8 68 351 0.8 1.4 1011.1
09:05 20.3 14.2 68 129 0.8 2.2 1011
09:15 20.6 14.5 68 128 0.8 2.2 1011
09:25 20.8 14.7 68 115 0.8 1.4 1011
09:35 21 14.9 68 350 0.8 2.2 1011
09:45 21.2 14.8 67 135 0.8 1.7 1011
09:56 21.4 15 67 78 0.8 1.4 1011
10:05 21.5 15.1 67 129 0.8 1.7 1011
10:15 21.7 15.3 67 356 0.3 1.7 1010.8
10:25 21.9 15.3 66 323 0.3 2.2 1010.9
10:36 22.1 15.5 66 135 0.8 1.4 1010.9
10:45 22.3 15.6 66 161 0.8 2.8 1010.7
10:55 22.5 15.8 66 347 0.8 2.8 1010.8
11:06 22.7 16 66 6 0.8 1.4 1010.7
11:16 23 16.3 66 341 0.8 1.4 1010.7
11:25 23.1 16.2 65 329 0.8 2.5 1010.5
11:35 23.4 16.5 65 333 0.8 2.2 1010.5
11:46 23.4 16.5 65 336 0.8 3.6 1010.4
11:56 23.6 16.6 65 0 0.8 1.7 1010.4
12:06 24 17 65 270 0.3 1.4 1010.3
12:16 24.1 16.9 64 339 0.8 1.7 1010.2
12:26 24.4 17.2 64 38 0.8 2.2 1010.2
12:36 24.5 17.2 64 296 0.8 1.7 1010.1
12:46 24.8 17.3 63 315 0.8 2.2 1010
12:56 24.7 17.2 63 308 0.8 3.6 1010
13:06 24.8 17.3 63 353 0.8 2.2 1009.9
13:16 24.9 17.4 63 321 0.8 3.1 1009.9
13:27 25 17.5 63 336 0.8 2.5 1009.8
13:36 25.1 17.3 62 0 0.3 2.2 1009.7
13:46 25.2 17.4 62 270 0.8 2.8 1009.7
13:56 25.4 17.6 62 308 0.8 3.1 1009.6
14:07 25.7 17.9 62 320 0.8 2.5 1009.7
14:16 25.7 17.9 62 315 0.8 2.2 1009.5
14:26 25.8 18 62 90 0.3 1.1 1009.5
14:37 26 17.9 61 338 0.8 2.8 1009.4
14:47 26 17.9 61 45 0.3 1.4 1009.2
14:56 26.1 18 61 270 0.8 2.5 1009.2
15:07 26.4 18.3 61 40 0.8 1.4 1009.1
15:17 26.6 18.5 61 26 0.3 1.4 1009
15:27 26.9 18.7 61 354 0.8 2.5 1009
15:37 27 18.6 60 30 0.8 2.2 1008.9
15:47 27.1 18.7 60 21 0.8 1.7 1008.8
15:57 27.1 18.7 60 56 0.8 2.2 1008.8
16:07 27.2 18.8 60 63 0.8 2.5 1008.8
16:17 27.3 18.6 59 40 1.1 2.2 1008.7
16:27 27.3 18.6 59 26 1.1 2.8 1008.6
16:37 27.4 18.7 59 32 0.8 2.2 1008.6
16:47 27.4 18.7 59 5 0.8 2.8 1008.4
16:58 27.4 18.7 59 36 0.8 1.7 1008.4
17:07 27.5 18.8 59 37 0.8 1.4 1008.3
17:17 27.5 18.5 58 36 0.8 1.7 1008.3
17:28 27.4 18.4 58 8 1.1 2.5 1008.2
17:38 27.4 18.4 58 351 1.4 2.5 1008.1
17:47 27.6 18.6 58 45 0.8 1.4 1008
17:57 27.5 18.5 58 45 1.1 1.7 1008
18:08 27.3 18.3 58 48 1.1 2.2 1007.9
18:18 27.1 18.1 58 48 1.1 1.7 1007.8
18:27 27 18 58 50 0.8 1.4 1007.7
18:38 26.8 17.6 57 45 0.8 1.4 1007.7
18:48 26.5 17.3 57 45 0.8 1.4 1007.6
18:58 26.1 17.2 58 45 0.8 1.4 1007.7
19:08 25.8 16.9 58 45 0.8 1.4 1007.6
20:26 23.2 15 60 0 0 1007.8
20:36 22.9 15 61 29 0.8 1.4 1007.9
20:46 22.5 14.6 61 38 0.8 1.4 1008.1
20:56 22.3 14.4 61 45 0.8 1.1 1008.2
21:06 22.1 14.5 62 42 0.8 1.4 1008.3

DAY STATISTIC

2019-07-17
TEMPERATURE
AVERAGE
20.6
HIGH
27.6
17:47
LOW
13.5
04:04
PRESSURE
AVERAGE
1010.2
HIGH
1011.5
02:35
LOW
1007.6
18:48
DEWPOINT
AVERAGE
13.8
HIGH
18.8
16:07
LOW
8.1
03:34
HUMIDITY
AVERAGE
65
HIGH
71
05:25
LOW
57
18:38
WIND SPEED
AVERAGE
0.6
HIGH
1.4
17:38
WIND GUST
AVERAGE
1.7
HIGH
3.6
11:46
WIND DIRECTION
PREVAILING
N
45.8%
N
45.8
NE
27.1
E
4.2
SE
6.8
S
0.8
SW
0.0
W
2.5
NW
12.7
TEMPERATURE (°C)
LOW
13.5
HIGH
27.6
AVERAGE
20.6
PRESSURE (hpa)
LOW
1007.6
HIGH
1011.5
AVERAGE
1010.2
DEVICE